sensor_id;sensor_type;location;lat;lon;timestamp;P1;durP1;ratioP1;P2;durP2;ratioP2
31438;SDS011;18062;48.872;9.220;2024-03-23T00:55:29;7.23;;;5.70;;
31438;SDS011;18062;48.872;9.220;2024-03-23T00:57:55;5.50;;;4.40;;
31438;SDS011;18062;48.872;9.220;2024-03-23T01:00:21;11.00;;;5.30;;
31438;SDS011;18062;48.872;9.220;2024-03-23T01:02:47;6.97;;;5.27;;
31438;SDS011;18062;48.872;9.220;2024-03-23T01:05:13;6.80;;;5.03;;
31438;SDS011;18062;48.872;9.220;2024-03-23T01:07:39;6.67;;;4.80;;
31438;SDS011;18062;48.872;9.220;2024-03-23T01:10:05;9.70;;;5.20;;
31438;SDS011;18062;48.872;9.220;2024-03-23T01:12:31;7.47;;;5.27;;
31438;SDS011;18062;48.872;9.220;2024-03-23T01:14:57;7.40;;;5.17;;
31438;SDS011;18062;48.872;9.220;2024-03-23T01:17:23;8.33;;;5.07;;
31438;SDS011;18062;48.872;9.220;2024-03-23T01:19:49;8.03;;;5.13;;
31438;SDS011;18062;48.872;9.220;2024-03-23T01:22:15;6.50;;;5.23;;
31438;SDS011;18062;48.872;9.220;2024-03-23T01:24:41;6.73;;;5.40;;
31438;SDS011;18062;48.872;9.220;2024-03-23T01:27:08;8.50;;;5.60;;
31438;SDS011;18062;48.872;9.220;2024-03-23T01:29:35;8.27;;;5.60;;
31438;SDS011;18062;48.872;9.220;2024-03-23T01:32:01;6.13;;;4.87;;
31438;SDS011;18062;48.872;9.220;2024-03-23T01:34:27;6.37;;;4.70;;
31438;SDS011;18062;48.872;9.220;2024-03-23T01:36:53;7.33;;;5.20;;
31438;SDS011;18062;48.872;9.220;2024-03-23T01:39:19;8.53;;;5.30;;
31438;SDS011;18062;48.872;9.220;2024-03-23T01:41:45;8.30;;;4.50;;
31438;SDS011;18062;48.872;9.220;2024-03-23T01:44:11;7.30;;;4.63;;
31438;SDS011;18062;48.872;9.220;2024-03-23T01:46:38;7.47;;;5.13;;
31438;SDS011;18062;48.872;9.220;2024-03-23T01:49:04;8.03;;;5.00;;
31438;SDS011;18062;48.872;9.220;2024-03-23T01:51:31;6.33;;;4.67;;
31438;SDS011;18062;48.872;9.220;2024-03-23T01:53:57;7.17;;;4.73;;
31438;SDS011;18062;48.872;9.220;2024-03-23T01:56:27;6.90;;;4.90;;
31438;SDS011;18062;48.872;9.220;2024-03-23T01:58:53;6.57;;;4.43;;
31438;SDS011;18062;48.872;9.220;2024-03-23T02:01:19;5.10;;;4.60;;
31438;SDS011;18062;48.872;9.220;2024-03-23T02:03:46;5.40;;;4.17;;
31438;SDS011;18062;48.872;9.220;2024-03-23T02:06:12;6.23;;;4.03;;
31438;SDS011;18062;48.872;9.220;2024-03-23T02:08:38;6.77;;;5.17;;
31438;SDS011;18062;48.872;9.220;2024-03-23T02:11:04;12.13;;;5.27;;
31438;SDS011;18062;48.872;9.220;2024-03-23T02:13:30;6.50;;;4.70;;
31438;SDS011;18062;48.872;9.220;2024-03-23T02:15:57;6.07;;;4.77;;
31438;SDS011;18062;48.872;9.220;2024-03-23T02:18:23;7.17;;;4.50;;
31438;SDS011;18062;48.872;9.220;2024-03-23T02:20:49;6.50;;;4.23;;
31438;SDS011;18062;48.872;9.220;2024-03-23T02:23:16;4.60;;;4.03;;
31438;SDS011;18062;48.872;9.220;2024-03-23T02:25:43;6.23;;;4.40;;
31438;SDS011;18062;48.872;9.220;2024-03-23T02:28:09;9.17;;;3.60;;
31438;SDS011;18062;48.872;9.220;2024-03-23T02:30:35;4.90;;;3.60;;
31438;SDS011;18062;48.872;9.220;2024-03-23T02:33:01;4.57;;;3.37;;
31438;SDS011;18062;48.872;9.220;2024-03-23T02:35:27;3.10;;;2.80;;
31438;SDS011;18062;48.872;9.220;2024-03-23T02:37:53;3.27;;;2.50;;
31438;SDS011;18062;48.872;9.220;2024-03-23T02:40:21;3.03;;;2.60;;
31438;SDS011;18062;48.872;9.220;2024-03-23T02:42:47;3.57;;;2.23;;
31438;SDS011;18062;48.872;9.220;2024-03-23T02:45:13;2.20;;;1.77;;
31438;SDS011;18062;48.872;9.220;2024-03-23T02:47:39;2.00;;;1.83;;
31438;SDS011;18062;48.872;9.220;2024-03-23T02:50:05;3.20;;;1.90;;
31438;SDS011;18062;48.872;9.220;2024-03-23T02:52:31;2.13;;;1.80;;
31438;SDS011;18062;48.872;9.220;2024-03-23T02:54:57;3.33;;;1.83;;
31438;SDS011;18062;48.872;9.220;2024-03-23T02:57:23;2.70;;;2.10;;
31438;SDS011;18062;48.872;9.220;2024-03-23T02:59:49;2.40;;;2.00;;
31438;SDS011;18062;48.872;9.220;2024-03-23T03:02:15;1.90;;;1.70;;
31438;SDS011;18062;48.872;9.220;2024-03-23T03:04:42;2.37;;;1.93;;
31438;SDS011;18062;48.872;9.220;2024-03-23T03:07:08;2.23;;;2.03;;
31438;SDS011;18062;48.872;9.220;2024-03-23T03:09:34;2.67;;;2.20;;
31438;SDS011;18062;48.872;9.220;2024-03-23T03:12:01;3.00;;;1.77;;
31438;SDS011;18062;48.872;9.220;2024-03-23T03:14:27;2.27;;;1.70;;
31438;SDS011;18062;48.872;9.220;2024-03-23T03:16:53;3.83;;;2.00;;
31438;SDS011;18062;48.872;9.220;2024-03-23T03:19:19;2.37;;;1.77;;
31438;SDS011;18062;48.872;9.220;2024-03-23T03:21:45;2.50;;;1.77;;
31438;SDS011;18062;48.872;9.220;2024-03-23T03:24:13;3.23;;;2.17;;
31438;SDS011;18062;48.872;9.220;2024-03-23T03:26:39;2.40;;;2.00;;
31438;SDS011;18062;48.872;9.220;2024-03-23T03:29:05;2.10;;;1.80;;
31438;SDS011;18062;48.872;9.220;2024-03-23T03:31:31;2.03;;;1.77;;
31438;SDS011;18062;48.872;9.220;2024-03-23T03:33:58;3.63;;;1.90;;
31438;SDS011;18062;48.872;9.220;2024-03-23T03:36:24;4.63;;;1.90;;
31438;SDS011;18062;48.872;9.220;2024-03-23T03:38:50;2.37;;;1.90;;
31438;SDS011;18062;48.872;9.220;2024-03-23T03:41:16;2.00;;;1.80;;
31438;SDS011;18062;48.872;9.220;2024-03-23T03:43:42;2.33;;;1.90;;
31438;SDS011;18062;48.872;9.220;2024-03-23T03:46:08;3.33;;;2.10;;
31438;SDS011;18062;48.872;9.220;2024-03-23T03:48:34;5.10;;;1.70;;
31438;SDS011;18062;48.872;9.220;2024-03-23T03:51:00;2.60;;;1.90;;
31438;SDS011;18062;48.872;9.220;2024-03-23T03:53:26;1.73;;;1.63;;
31438;SDS011;18062;48.872;9.220;2024-03-23T03:55:53;2.67;;;1.77;;
31438;SDS011;18062;48.872;9.220;2024-03-23T03:58:19;1.73;;;1.63;;
31438;SDS011;18062;48.872;9.220;2024-03-23T04:00:45;1.80;;;1.70;;
31438;SDS011;18062;48.872;9.220;2024-03-23T04:03:11;3.23;;;1.67;;
31438;SDS011;18062;48.872;9.220;2024-03-23T04:05:37;2.83;;;1.77;;
31438;SDS011;18062;48.872;9.220;2024-03-23T04:08:03;2.63;;;1.70;;
31438;SDS011;18062;48.872;9.220;2024-03-23T04:10:29;2.03;;;1.47;;
31438;SDS011;18062;48.872;9.220;2024-03-23T04:12:55;2.20;;;1.93;;
31438;SDS011;18062;48.872;9.220;2024-03-23T04:15:21;2.30;;;2.00;;
31438;SDS011;18062;48.872;9.220;2024-03-23T04:17:47;3.57;;;1.80;;
31438;SDS011;18062;48.872;9.220;2024-03-23T04:20:13;2.77;;;2.10;;
31438;SDS011;18062;48.872;9.220;2024-03-23T04:22:43;2.10;;;1.90;;
31438;SDS011;18062;48.872;9.220;2024-03-23T04:25:09;3.07;;;2.17;;
31438;SDS011;18062;48.872;9.220;2024-03-23T04:27:36;2.87;;;2.40;;
31438;SDS011;18062;48.872;9.220;2024-03-23T04:30:02;2.23;;;2.03;;
31438;SDS011;18062;48.872;9.220;2024-03-23T04:32:34;2.60;;;2.40;;
31438;SDS011;18062;48.872;9.220;2024-03-23T04:35:00;4.73;;;3.03;;
31438;SDS011;18062;48.872;9.220;2024-03-23T04:37:29;3.50;;;3.07;;
31438;SDS011;18062;48.872;9.220;2024-03-23T04:39:55;4.07;;;3.03;;
31438;SDS011;18062;48.872;9.220;2024-03-23T04:42:21;5.67;;;4.07;;
31438;SDS011;18062;48.872;9.220;2024-03-23T04:44:47;6.13;;;4.07;;
31438;SDS011;18062;48.872;9.220;2024-03-23T04:47:13;9.53;;;5.20;;
31438;SDS011;18062;48.872;9.220;2024-03-23T04:49:39;10.40;;;5.30;;
31438;SDS011;18062;48.872;9.220;2024-03-23T04:52:05;9.23;;;6.70;;
31438;SDS011;18062;48.872;9.220;2024-03-23T04:54:31;11.17;;;6.50;;
31438;SDS011;18062;48.872;9.220;2024-03-23T04:56:58;12.17;;;7.20;;
31438;SDS011;18062;48.872;9.220;2024-03-23T04:59:24;12.67;;;8.90;;
31438;SDS011;18062;48.872;9.220;2024-03-23T05:01:50;14.90;;;8.63;;
31438;SDS011;18062;48.872;9.220;2024-03-23T05:04:16;14.57;;;8.27;;
31438;SDS011;18062;48.872;9.220;2024-03-23T05:06:42;15.47;;;8.87;;
31438;SDS011;18062;48.872;9.220;2024-03-23T05:09:08;13.60;;;8.73;;
31438;SDS011;18062;48.872;9.220;2024-03-23T05:11:39;19.30;;;9.63;;
31438;SDS011;18062;48.872;9.220;2024-03-23T05:14:05;13.57;;;8.93;;
31438;SDS011;18062;48.872;9.220;2024-03-23T05:16:31;14.13;;;9.73;;
31438;SDS011;18062;48.872;9.220;2024-03-23T05:18:57;14.63;;;8.47;;
31438;SDS011;18062;48.872;9.220;2024-03-23T05:21:23;14.40;;;9.63;;
31438;SDS011;18062;48.872;9.220;2024-03-23T05:23:49;16.13;;;10.23;;
31438;SDS011;18062;48.872;9.220;2024-03-23T05:26:16;13.33;;;8.87;;
31438;SDS011;18062;48.872;9.220;2024-03-23T05:28:42;15.17;;;9.53;;
31438;SDS011;18062;48.872;9.220;2024-03-23T05:31:08;13.67;;;8.43;;
31438;SDS011;18062;48.872;9.220;2024-03-23T05:33:38;15.60;;;9.33;;
31438;SDS011;18062;48.872;9.220;2024-03-23T05:36:04;12.20;;;7.97;;
31438;SDS011;18062;48.872;9.220;2024-03-23T05:38:30;14.17;;;7.83;;
31438;SDS011;18062;48.872;9.220;2024-03-23T05:40:59;10.60;;;7.30;;
31438;SDS011;18062;48.872;9.220;2024-03-23T05:43:26;9.80;;;7.10;;
31438;SDS011;18062;48.872;9.220;2024-03-23T05:45:57;12.23;;;7.87;;
31438;SDS011;18062;48.872;9.220;2024-03-23T05:48:23;10.47;;;6.60;;
31438;SDS011;18062;48.872;9.220;2024-03-23T05:50:49;9.50;;;5.90;;
31438;SDS011;18062;48.872;9.220;2024-03-23T05:53:15;11.20;;;6.40;;
31438;SDS011;18062;48.872;9.220;2024-03-23T05:55:42;6.70;;;4.77;;
31438;SDS011;18062;48.872;9.220;2024-03-23T05:58:08;9.30;;;5.30;;
31438;SDS011;18062;48.872;9.220;2024-03-23T06:00:34;9.73;;;4.23;;
31438;SDS011;18062;48.872;9.220;2024-03-23T06:03:00;6.57;;;4.30;;
31438;SDS011;18062;48.872;9.220;2024-03-23T06:05:26;5.60;;;3.73;;
31438;SDS011;18062;48.872;9.220;2024-03-23T06:07:53;5.17;;;3.90;;
31438;SDS011;18062;48.872;9.220;2024-03-23T06:10:19;9.33;;;3.83;;
31438;SDS011;18062;48.872;9.220;2024-03-23T06:12:46;6.90;;;3.83;;
31438;SDS011;18062;48.872;9.220;2024-03-23T06:15:18;7.17;;;4.50;;
31438;SDS011;18062;48.872;9.220;2024-03-23T06:17:44;7.83;;;4.97;;
31438;SDS011;18062;48.872;9.220;2024-03-23T06:20:10;7.87;;;4.93;;
31438;SDS011;18062;48.872;9.220;2024-03-23T06:22:36;7.93;;;4.27;;
31438;SDS011;18062;48.872;9.220;2024-03-23T06:25:02;6.50;;;4.17;;
31438;SDS011;18062;48.872;9.220;2024-03-23T06:27:29;5.80;;;3.50;;
31438;SDS011;18062;48.872;9.220;2024-03-23T06:29:55;7.00;;;3.83;;
31438;SDS011;18062;48.872;9.220;2024-03-23T06:32:21;6.17;;;3.97;;
31438;SDS011;18062;48.872;9.220;2024-03-23T06:34:48;4.77;;;3.03;;
31438;SDS011;18062;48.872;9.220;2024-03-23T06:37:14;5.13;;;3.47;;
31438;SDS011;18062;48.872;9.220;2024-03-23T06:39:40;3.33;;;2.27;;
31438;SDS011;18062;48.872;9.220;2024-03-23T06:42:06;5.07;;;2.57;;
31438;SDS011;18062;48.872;9.220;2024-03-23T06:44:33;3.00;;;2.17;;
31438;SDS011;18062;48.872;9.220;2024-03-23T06:46:59;2.83;;;2.10;;
31438;SDS011;18062;48.872;9.220;2024-03-23T06:49:25;3.27;;;1.83;;
31438;SDS011;18062;48.872;9.220;2024-03-23T06:51:51;2.27;;;1.73;;
31438;SDS011;18062;48.872;9.220;2024-03-23T06:54:20;1.60;;;1.50;;
31438;SDS011;18062;48.872;9.220;2024-03-23T06:56:46;2.77;;;1.90;;
31438;SDS011;18062;48.872;9.220;2024-03-23T06:59:12;1.83;;;1.57;;
31438;SDS011;18062;48.872;9.220;2024-03-23T07:01:38;1.67;;;1.57;;
31438;SDS011;18062;48.872;9.220;2024-03-23T07:04:04;1.70;;;1.37;;
31438;SDS011;18062;48.872;9.220;2024-03-23T07:06:30;1.10;;;1.00;;
31438;SDS011;18062;48.872;9.220;2024-03-23T07:08:56;1.07;;;1.00;;
31438;SDS011;18062;48.872;9.220;2024-03-23T07:11:23;1.57;;;1.07;;
31438;SDS011;18062;48.872;9.220;2024-03-23T07:13:49;0.80;;;0.80;;
31438;SDS011;18062;48.872;9.220;2024-03-23T07:16:16;1.53;;;1.00;;
31438;SDS011;18062;48.872;9.220;2024-03-23T07:18:43;0.73;;;0.70;;
31438;SDS011;18062;48.872;9.220;2024-03-23T07:21:09;1.10;;;1.00;;
31438;SDS011;18062;48.872;9.220;2024-03-23T07:23:35;1.20;;;1.07;;
31438;SDS011;18062;48.872;9.220;2024-03-23T07:26:01;1.00;;;0.90;;
31438;SDS011;18062;48.872;9.220;2024-03-23T07:28:28;1.07;;;0.97;;
31438;SDS011;18062;48.872;9.220;2024-03-23T07:31:08;0.87;;;0.87;;
31438;SDS011;18062;48.872;9.220;2024-03-23T07:33:35;0.83;;;0.83;;
31438;SDS011;18062;48.872;9.220;2024-03-23T07:36:02;0.80;;;0.80;;
31438;SDS011;18062;48.872;9.220;2024-03-23T07:38:28;1.17;;;0.90;;
31438;SDS011;18062;48.872;9.220;2024-03-23T07:41:07;0.60;;;0.60;;
31438;SDS011;18062;48.872;9.220;2024-03-23T07:43:34;0.87;;;0.87;;
31438;SDS011;18062;48.872;9.220;2024-03-23T07:46:01;1.00;;;0.90;;
31438;SDS011;18062;48.872;9.220;2024-03-23T07:48:29;0.70;;;0.70;;
31438;SDS011;18062;48.872;9.220;2024-03-23T07:51:00;0.80;;;0.80;;
31438;SDS011;18062;48.872;9.220;2024-03-23T07:53:26;0.60;;;0.60;;
31438;SDS011;18062;48.872;9.220;2024-03-23T07:55:56;1.33;;;0.77;;
31438;SDS011;18062;48.872;9.220;2024-03-23T07:58:22;0.83;;;0.80;;
31438;SDS011;18062;48.872;9.220;2024-03-23T08:00:48;1.00;;;1.00;;
31438;SDS011;18062;48.872;9.220;2024-03-23T08:03:14;0.87;;;0.87;;
31438;SDS011;18062;48.872;9.220;2024-03-23T08:05:40;0.87;;;0.87;;
31438;SDS011;18062;48.872;9.220;2024-03-23T08:08:06;1.00;;;0.93;;
31438;SDS011;18062;48.872;9.220;2024-03-23T08:10:33;0.57;;;0.57;;
31438;SDS011;18062;48.872;9.220;2024-03-23T08:12:59;0.70;;;0.70;;
31438;SDS011;18062;48.872;9.220;2024-03-23T08:15:25;0.93;;;0.70;;
31438;SDS011;18062;48.872;9.220;2024-03-23T08:17:51;1.10;;;0.80;;
31438;SDS011;18062;48.872;9.220;2024-03-23T08:20:17;0.60;;;0.60;;
31438;SDS011;18062;48.872;9.220;2024-03-23T08:22:43;0.80;;;0.80;;
31438;SDS011;18062;48.872;9.220;2024-03-23T08:25:09;0.67;;;0.67;;
31438;SDS011;18062;48.872;9.220;2024-03-23T08:27:35;0.50;;;0.50;;
31438;SDS011;18062;48.872;9.220;2024-03-23T08:30:01;0.47;;;0.47;;
31438;SDS011;18062;48.872;9.220;2024-03-23T08:32:27;0.50;;;0.50;;
31438;SDS011;18062;48.872;9.220;2024-03-23T08:34:53;0.90;;;0.70;;
31438;SDS011;18062;48.872;9.220;2024-03-23T08:37:20;0.47;;;0.43;;
31438;SDS011;18062;48.872;9.220;2024-03-23T08:39:46;0.60;;;0.60;;
31438;SDS011;18062;48.872;9.220;2024-03-23T08:42:12;0.50;;;0.50;;
31438;SDS011;18062;48.872;9.220;2024-03-23T08:44:38;0.83;;;0.70;;
31438;SDS011;18062;48.872;9.220;2024-03-23T08:47:05;1.53;;;0.80;;
31438;SDS011;18062;48.872;9.220;2024-03-23T08:49:31;0.70;;;0.67;;
31438;SDS011;18062;48.872;9.220;2024-03-23T08:51:57;2.03;;;1.00;;
31438;SDS011;18062;48.872;9.220;2024-03-23T08:54:23;1.30;;;0.80;;
31438;SDS011;18062;48.872;9.220;2024-03-23T08:56:51;2.60;;;0.87;;
31438;SDS011;18062;48.872;9.220;2024-03-23T08:59:17;0.70;;;0.70;;
31438;SDS011;18062;48.872;9.220;2024-03-23T09:01:45;0.60;;;0.60;;
31438;SDS011;18062;48.872;9.220;2024-03-23T09:04:11;1.23;;;1.07;;
31438;SDS011;18062;48.872;9.220;2024-03-23T09:06:37;1.10;;;1.00;;
31438;SDS011;18062;48.872;9.220;2024-03-23T09:09:03;2.50;;;1.30;;
31438;SDS011;18062;48.872;9.220;2024-03-23T09:11:29;2.70;;;1.17;;
31438;SDS011;18062;48.872;9.220;2024-03-23T09:13:55;1.53;;;1.00;;
31438;SDS011;18062;48.872;9.220;2024-03-23T09:16:21;2.03;;;1.10;;
31438;SDS011;18062;48.872;9.220;2024-03-23T09:18:47;1.27;;;1.00;;
31438;SDS011;18062;48.872;9.220;2024-03-23T09:21:13;2.50;;;1.10;;
31438;SDS011;18062;48.872;9.220;2024-03-23T09:23:39;2.60;;;1.40;;
31438;SDS011;18062;48.872;9.220;2024-03-23T09:26:06;2.07;;;1.37;;
31438;SDS011;18062;48.872;9.220;2024-03-23T09:28:32;3.60;;;1.77;;
31438;SDS011;18062;48.872;9.220;2024-03-23T09:31:08;1.67;;;1.57;;
31438;SDS011;18062;48.872;9.220;2024-03-23T09:33:39;2.63;;;1.63;;
31438;SDS011;18062;48.872;9.220;2024-03-23T09:36:05;2.67;;;2.10;;
31438;SDS011;18062;48.872;9.220;2024-03-23T09:38:31;3.23;;;1.57;;
31438;SDS011;18062;48.872;9.220;2024-03-23T09:40:58;3.83;;;2.00;;
31438;SDS011;18062;48.872;9.220;2024-03-23T09:43:24;4.93;;;1.93;;
31438;SDS011;18062;48.872;9.220;2024-03-23T09:45:50;3.07;;;1.80;;
31438;SDS011;18062;48.872;9.220;2024-03-23T09:48:16;4.20;;;1.40;;
31438;SDS011;18062;48.872;9.220;2024-03-23T09:50:43;3.03;;;1.63;;
31438;SDS011;18062;48.872;9.220;2024-03-23T09:53:11;3.37;;;2.00;;
31438;SDS011;18062;48.872;9.220;2024-03-23T09:55:37;3.17;;;1.60;;
31438;SDS011;18062;48.872;9.220;2024-03-23T09:58:04;1.87;;;1.50;;
31438;SDS011;18062;48.872;9.220;2024-03-23T10:00:33;2.57;;;1.57;;
31438;SDS011;18062;48.872;9.220;2024-03-23T10:02:59;5.53;;;1.53;;
31438;SDS011;18062;48.872;9.220;2024-03-23T10:05:29;1.93;;;1.30;;
31438;SDS011;18062;48.872;9.220;2024-03-23T10:07:59;2.63;;;1.30;;
31438;SDS011;18062;48.872;9.220;2024-03-23T10:10:26;3.17;;;1.50;;
31438;SDS011;18062;48.872;9.220;2024-03-23T10:12:52;1.97;;;1.40;;
31438;SDS011;18062;48.872;9.220;2024-03-23T10:15:19;2.73;;;1.67;;
31438;SDS011;18062;48.872;9.220;2024-03-23T10:17:45;3.93;;;1.77;;
31438;SDS011;18062;48.872;9.220;2024-03-23T10:20:11;4.20;;;1.67;;
31438;SDS011;18062;48.872;9.220;2024-03-23T10:22:38;4.70;;;1.80;;
31438;SDS011;18062;48.872;9.220;2024-03-23T10:25:10;3.07;;;1.50;;
31438;SDS011;18062;48.872;9.220;2024-03-23T10:27:36;6.07;;;1.67;;
31438;SDS011;18062;48.872;9.220;2024-03-23T10:30:12;2.53;;;1.50;;
31438;SDS011;18062;48.872;9.220;2024-03-23T10:32:39;3.67;;;1.93;;
31438;SDS011;18062;48.872;9.220;2024-03-23T10:35:16;3.57;;;1.80;;
31438;SDS011;18062;48.872;9.220;2024-03-23T10:37:43;3.77;;;2.00;;
31438;SDS011;18062;48.872;9.220;2024-03-23T10:40:10;5.43;;;1.80;;
31438;SDS011;18062;48.872;9.220;2024-03-23T10:42:38;5.30;;;1.70;;
31438;SDS011;18062;48.872;9.220;2024-03-23T10:45:04;4.33;;;1.67;;
31438;SDS011;18062;48.872;9.220;2024-03-23T10:47:31;2.90;;;1.60;;
31438;SDS011;18062;48.872;9.220;2024-03-23T10:49:57;3.87;;;1.60;;
31438;SDS011;18062;48.872;9.220;2024-03-23T10:52:23;5.73;;;1.80;;
31438;SDS011;18062;48.872;9.220;2024-03-23T10:54:50;8.03;;;2.53;;
31438;SDS011;18062;48.872;9.220;2024-03-23T10:57:17;7.67;;;2.67;;
31438;SDS011;18062;48.872;9.220;2024-03-23T10:59:45;4.63;;;2.20;;
31438;SDS011;18062;48.872;9.220;2024-03-23T11:02:18;6.23;;;2.40;;
31438;SDS011;18062;48.872;9.220;2024-03-23T11:04:45;3.57;;;2.07;;
31438;SDS011;18062;48.872;9.220;2024-03-23T11:07:28;5.47;;;2.60;;
31438;SDS011;18062;48.872;9.220;2024-03-23T11:09:55;4.67;;;2.70;;
31438;SDS011;18062;48.872;9.220;2024-03-23T11:14:55;5.40;;;3.00;;
31438;SDS011;18062;48.872;9.220;2024-03-23T11:17:22;4.50;;;2.80;;
31438;SDS011;18062;48.872;9.220;2024-03-23T11:19:55;5.30;;;2.97;;
31438;SDS011;18062;48.872;9.220;2024-03-23T11:25:03;3.93;;;3.50;;
31438;SDS011;18062;48.872;9.220;2024-03-23T11:27:29;6.47;;;3.20;;
31438;SDS011;18062;48.872;9.220;2024-03-23T11:30:09;3.63;;;2.17;;
31438;SDS011;18062;48.872;9.220;2024-03-23T11:32:35;2.87;;;1.77;;
31438;SDS011;18062;48.872;9.220;2024-03-23T11:35:02;4.00;;;2.20;;
31438;SDS011;18062;48.872;9.220;2024-03-23T11:37:28;1.90;;;1.80;;
31438;SDS011;18062;48.872;9.220;2024-03-23T11:39:54;2.67;;;1.70;;
31438;SDS011;18062;48.872;9.220;2024-03-23T11:42:20;2.43;;;1.83;;
31438;SDS011;18062;48.872;9.220;2024-03-23T11:44:46;3.50;;;1.90;;
31438;SDS011;18062;48.872;9.220;2024-03-23T11:47:12;1.87;;;1.60;;
31438;SDS011;18062;48.872;9.220;2024-03-23T11:49:38;1.93;;;1.47;;
31438;SDS011;18062;48.872;9.220;2024-03-23T11:52:07;1.47;;;1.37;;
31438;SDS011;18062;48.872;9.220;2024-03-23T11:54:33;3.67;;;1.40;;
31438;SDS011;18062;48.872;9.220;2024-03-23T11:57:00;1.50;;;1.40;;
31438;SDS011;18062;48.872;9.220;2024-03-23T11:59:39;2.90;;;1.40;;
31438;SDS011;18062;48.872;9.220;2024-03-23T12:02:11;1.60;;;1.50;;
31438;SDS011;18062;48.872;9.220;2024-03-23T12:04:40;3.10;;;1.70;;
31438;SDS011;18062;48.872;9.220;2024-03-23T12:07:14;2.73;;;1.50;;
31438;SDS011;18062;48.872;9.220;2024-03-23T12:09:40;3.43;;;1.70;;
31438;SDS011;18062;48.872;9.220;2024-03-23T12:12:16;1.50;;;1.40;;
31438;SDS011;18062;48.872;9.220;2024-03-23T12:14:42;3.43;;;1.50;;
31438;SDS011;18062;48.872;9.220;2024-03-23T12:17:12;4.63;;;1.30;;
31438;SDS011;18062;48.872;9.220;2024-03-23T12:19:38;5.33;;;1.50;;
31438;SDS011;18062;48.872;9.220;2024-03-23T12:22:05;4.23;;;1.03;;
31438;SDS011;18062;48.872;9.220;2024-03-23T12:24:32;3.33;;;1.17;;
31438;SDS011;18062;48.872;9.220;2024-03-23T12:27:04;3.43;;;1.07;;
31438;SDS011;18062;48.872;9.220;2024-03-23T12:29:31;2.30;;;1.10;;
31438;SDS011;18062;48.872;9.220;2024-03-23T12:32:00;4.13;;;1.10;;
31438;SDS011;18062;48.872;9.220;2024-03-23T12:34:29;2.30;;;1.27;;
31438;SDS011;18062;48.872;9.220;2024-03-23T12:36:55;4.30;;;1.33;;
31438;SDS011;18062;48.872;9.220;2024-03-23T12:39:21;4.20;;;1.10;;
31438;SDS011;18062;48.872;9.220;2024-03-23T12:41:48;0.93;;;0.90;;
31438;SDS011;18062;48.872;9.220;2024-03-23T12:44:14;2.20;;;1.30;;
31438;SDS011;18062;48.872;9.220;2024-03-23T12:46:43;6.97;;;1.20;;
31438;SDS011;18062;48.872;9.220;2024-03-23T12:49:09;2.90;;;1.37;;
31438;SDS011;18062;48.872;9.220;2024-03-23T12:51:35;3.87;;;1.10;;
31438;SDS011;18062;48.872;9.220;2024-03-23T12:54:01;4.33;;;1.50;;
31438;SDS011;18062;48.872;9.220;2024-03-23T12:56:27;3.03;;;1.50;;
31438;SDS011;18062;48.872;9.220;2024-03-23T12:58:53;6.07;;;1.37;;
31438;SDS011;18062;48.872;9.220;2024-03-23T13:01:21;4.67;;;1.50;;
31438;SDS011;18062;48.872;9.220;2024-03-23T13:03:48;2.87;;;1.40;;
31438;SDS011;18062;48.872;9.220;2024-03-23T13:06:14;3.70;;;1.37;;
31438;SDS011;18062;48.872;9.220;2024-03-23T13:08:40;3.17;;;1.40;;
31438;SDS011;18062;48.872;9.220;2024-03-23T13:11:08;4.28;;;1.30;;
31438;SDS011;18062;48.872;9.220;2024-03-23T13:13:35;5.15;;;1.40;;
31438;SDS011;18062;48.872;9.220;2024-03-23T13:16:01;2.70;;;1.50;;
31438;SDS011;18062;48.872;9.220;2024-03-23T13:18:28;4.95;;;1.70;;
31438;SDS011;18062;48.872;9.220;2024-03-23T13:20:54;2.20;;;1.15;;
31438;SDS011;18062;48.872;9.220;2024-03-23T13:23:20;1.70;;;1.10;;
31438;SDS011;18062;48.872;9.220;2024-03-23T13:25:54;2.80;;;1.40;;
31438;SDS011;18062;48.872;9.220;2024-03-23T13:28:21;4.13;;;1.20;;
31438;SDS011;18062;48.872;9.220;2024-03-23T13:30:54;2.53;;;1.20;;
31438;SDS011;18062;48.872;9.220;2024-03-23T13:33:29;4.47;;;1.38;;
31438;SDS011;18062;48.872;9.220;2024-03-23T13:35:57;2.72;;;1.30;;
31438;SDS011;18062;48.872;9.220;2024-03-23T13:38:24;3.60;;;1.38;;
31438;SDS011;18062;48.872;9.220;2024-03-23T13:43:17;4.57;;;1.63;;
31438;SDS011;18062;48.872;9.220;2024-03-23T13:45:43;2.92;;;1.23;;
31438;SDS011;18062;48.872;9.220;2024-03-23T13:48:09;6.20;;;1.50;;
31438;SDS011;18062;48.872;9.220;2024-03-23T13:50:35;3.20;;;1.27;;
31438;SDS011;18062;48.872;9.220;2024-03-23T13:53:01;3.03;;;1.35;;
31438;SDS011;18062;48.872;9.220;2024-03-23T13:55:27;2.30;;;1.35;;
31438;SDS011;18062;48.872;9.220;2024-03-23T13:57:53;2.03;;;0.95;;
31438;SDS011;18062;48.872;9.220;2024-03-23T14:00:19;1.13;;;0.93;;
31438;SDS011;18062;48.872;9.220;2024-03-23T14:02:45;2.40;;;0.90;;
31438;SDS011;18062;48.872;9.220;2024-03-23T14:05:11;2.13;;;0.90;;
31438;SDS011;18062;48.872;9.220;2024-03-23T14:07:37;2.97;;;0.87;;
31438;SDS011;18062;48.872;9.220;2024-03-23T14:10:04;1.63;;;0.90;;
31438;SDS011;18062;48.872;9.220;2024-03-23T14:12:31;0.97;;;0.83;;
31438;SDS011;18062;48.872;9.220;2024-03-23T14:14:57;4.47;;;1.17;;
31438;SDS011;18062;48.872;9.220;2024-03-23T14:17:24;1.07;;;0.80;;
31438;SDS011;18062;48.872;9.220;2024-03-23T14:19:51;2.30;;;1.00;;
31438;SDS011;18062;48.872;9.220;2024-03-23T14:22:17;2.67;;;1.07;;
31438;SDS011;18062;48.872;9.220;2024-03-23T14:24:44;2.70;;;1.20;;
31438;SDS011;18062;48.872;9.220;2024-03-23T14:27:10;3.23;;;1.20;;
31438;SDS011;18062;48.872;9.220;2024-03-23T14:29:36;2.40;;;0.90;;
31438;SDS011;18062;48.872;9.220;2024-03-23T14:32:02;0.80;;;0.80;;
31438;SDS011;18062;48.872;9.220;2024-03-23T14:34:29;3.27;;;0.93;;
31438;SDS011;18062;48.872;9.220;2024-03-23T14:36:55;1.77;;;1.13;;
31438;SDS011;18062;48.872;9.220;2024-03-23T14:39:24;2.97;;;1.00;;
31438;SDS011;18062;48.872;9.220;2024-03-23T14:41:50;1.80;;;1.00;;
31438;SDS011;18062;48.872;9.220;2024-03-23T14:44:16;2.73;;;0.80;;
31438;SDS011;18062;48.872;9.220;2024-03-23T14:46:42;2.20;;;0.80;;
31438;SDS011;18062;48.872;9.220;2024-03-23T14:49:08;1.37;;;0.90;;
31438;SDS011;18062;48.872;9.220;2024-03-23T14:51:35;1.00;;;0.80;;
31438;SDS011;18062;48.872;9.220;2024-03-23T14:54:01;2.43;;;0.80;;
31438;SDS011;18062;48.872;9.220;2024-03-23T14:56:28;2.60;;;0.90;;
31438;SDS011;18062;48.872;9.220;2024-03-23T14:58:54;1.67;;;0.73;;
31438;SDS011;18062;48.872;9.220;2024-03-23T15:01:21;1.37;;;0.90;;
31438;SDS011;18062;48.872;9.220;2024-03-23T15:03:47;2.37;;;0.87;;
31438;SDS011;18062;48.872;9.220;2024-03-23T15:06:13;2.43;;;1.10;;
31438;SDS011;18062;48.872;9.220;2024-03-23T15:08:39;3.47;;;0.90;;
31438;SDS011;18062;48.872;9.220;2024-03-23T15:11:05;3.07;;;1.00;;
31438;SDS011;18062;48.872;9.220;2024-03-23T15:13:32;1.47;;;0.80;;
31438;SDS011;18062;48.872;9.220;2024-03-23T15:15:58;1.40;;;0.80;;
31438;SDS011;18062;48.872;9.220;2024-03-23T15:18:24;1.37;;;0.90;;
31438;SDS011;18062;48.872;9.220;2024-03-23T15:20:54;1.63;;;0.77;;
31438;SDS011;18062;48.872;9.220;2024-03-23T15:23:20;2.23;;;0.80;;
31438;SDS011;18062;48.872;9.220;2024-03-23T15:25:53;0.47;;;0.47;;
31438;SDS011;18062;48.872;9.220;2024-03-23T15:28:19;1.47;;;0.80;;
31438;SDS011;18062;48.872;9.220;2024-03-23T15:30:45;0.97;;;0.80;;
31438;SDS011;18062;48.872;9.220;2024-03-23T15:33:11;1.52;;;0.50;;
31438;SDS011;18062;48.872;9.220;2024-03-23T15:35:37;1.58;;;0.63;;
31438;SDS011;18062;48.872;9.220;2024-03-23T15:38:03;0.70;;;0.70;;
31438;SDS011;18062;48.872;9.220;2024-03-23T15:40:30;2.03;;;0.77;;
31438;SDS011;18062;48.872;9.220;2024-03-23T15:42:56;1.55;;;0.70;;
31438;SDS011;18062;48.872;9.220;2024-03-23T15:45:22;1.15;;;0.75;;